sensor_id;sensor_type;location;lat;lon;timestamp;pressure;altitude;pressure_sealevel;temperature;humidity
11444;BME280;5778;47.856;12.154;2023-02-11T00:02:11;98229.72;;;-2.70;100.00
11444;BME280;5778;47.856;12.154;2023-02-11T00:04:38;98229.03;;;-2.72;100.00
11444;BME280;5778;47.856;12.154;2023-02-11T00:07:05;98220.09;;;-2.58;100.00
11444;BME280;5778;47.856;12.154;2023-02-11T00:09:34;98223.47;;;-2.47;100.00
11444;BME280;5778;47.856;12.154;2023-02-11T00:12:01;98219.94;;;-2.57;100.00
11444;BME280;5778;47.856;12.154;2023-02-11T00:14:31;98221.59;;;-2.45;100.00
11444;BME280;5778;47.856;12.154;2023-02-11T00:16:59;98222.22;;;-2.52;100.00
11444;BME280;5778;47.856;12.154;2023-02-11T00:19:26;98210.03;;;-2.63;100.00
11444;BME280;5778;47.856;12.154;2023-02-11T00:21:53;98217.13;;;-2.54;100.00
11444;BME280;5778;47.856;12.154;2023-02-11T00:24:20;98209.31;;;-2.54;100.00
11444;BME280;5778;47.856;12.154;2023-02-11T00:26:48;98204.03;;;-2.43;100.00
11444;BME280;5778;47.856;12.154;2023-02-11T00:29:15;98209.13;;;-2.41;100.00
11444;BME280;5778;47.856;12.154;2023-02-11T00:31:43;98210.44;;;-2.47;100.00
11444;BME280;5778;47.856;12.154;2023-02-11T00:34:10;98210.09;;;-2.74;100.00
11444;BME280;5778;47.856;12.154;2023-02-11T00:36:39;98214.22;;;-3.03;100.00
11444;BME280;5778;47.856;12.154;2023-02-11T00:39:07;98210.19;;;-3.07;100.00
11444;BME280;5778;47.856;12.154;2023-02-11T00:41:34;98196.53;;;-2.88;100.00
11444;BME280;5778;47.856;12.154;2023-02-11T00:44:06;98196.09;;;-2.73;100.00
11444;BME280;5778;47.856;12.154;2023-02-11T00:46:33;98199.16;;;-2.68;100.00
11444;BME280;5778;47.856;12.154;2023-02-11T00:49:00;98194.28;;;-2.82;100.00
11444;BME280;5778;47.856;12.154;2023-02-11T00:51:27;98196.47;;;-3.09;100.00
11444;BME280;5778;47.856;12.154;2023-02-11T00:53:55;98203.69;;;-3.01;100.00
11444;BME280;5778;47.856;12.154;2023-02-11T00:56:25;98199.66;;;-3.05;100.00
11444;BME280;5778;47.856;12.154;2023-02-11T00:58:54;98196.00;;;-3.03;100.00
11444;BME280;5778;47.856;12.154;2023-02-11T01:01:23;98195.56;;;-2.87;100.00
11444;BME280;5778;47.856;12.154;2023-02-11T01:03:53;98189.22;;;-2.94;100.00
11444;BME280;5778;47.856;12.154;2023-02-11T01:06:22;98194.16;;;-2.91;100.00
11444;BME280;5778;47.856;12.154;2023-02-11T01:08:49;98186.50;;;-2.93;100.00
11444;BME280;5778;47.856;12.154;2023-02-11T01:11:17;98190.56;;;-3.11;100.00
11444;BME280;5778;47.856;12.154;2023-02-11T01:13:46;98194.69;;;-3.08;100.00
11444;BME280;5778;47.856;12.154;2023-02-11T01:16:14;98188.13;;;-3.23;100.00
11444;BME280;5778;47.856;12.154;2023-02-11T01:18:42;98196.00;;;-3.03;100.00
11444;BME280;5778;47.856;12.154;2023-02-11T01:21:09;98188.59;;;-2.55;100.00
11444;BME280;5778;47.856;12.154;2023-02-11T01:23:39;98184.06;;;-2.53;100.00
11444;BME280;5778;47.856;12.154;2023-02-11T01:26:06;98185.91;;;-2.24;100.00
11444;BME280;5778;47.856;12.154;2023-02-11T01:28:35;98178.53;;;-2.19;100.00
11444;BME280;5778;47.856;12.154;2023-02-11T01:31:02;98177.38;;;-2.05;100.00
11444;BME280;5778;47.856;12.154;2023-02-11T01:33:31;98178.53;;;-1.98;100.00
11444;BME280;5778;47.856;12.154;2023-02-11T01:36:07;98177.19;;;-1.93;100.00
11444;BME280;5778;47.856;12.154;2023-02-11T01:38:34;98176.75;;;-1.98;100.00
11444;BME280;5778;47.856;12.154;2023-02-11T01:41:05;98173.69;;;-2.03;100.00
11444;BME280;5778;47.856;12.154;2023-02-11T01:43:35;98182.56;;;-2.15;100.00
11444;BME280;5778;47.856;12.154;2023-02-11T01:46:13;98179.75;;;-2.43;100.00
11444;BME280;5778;47.856;12.154;2023-02-11T01:48:44;98178.66;;;-2.82;100.00
11444;BME280;5778;47.856;12.154;2023-02-11T01:51:20;98173.19;;;-3.10;100.00
11444;BME280;5778;47.856;12.154;2023-02-11T01:53:49;98170.59;;;-3.21;100.00
11444;BME280;5778;47.856;12.154;2023-02-11T01:56:38;98174.97;;;-3.22;100.00
11444;BME280;5778;47.856;12.154;2023-02-11T01:59:29;98171.22;;;-3.29;100.00
11444;BME280;5778;47.856;12.154;2023-02-11T02:02:04;98166.97;;;-3.30;100.00
11444;BME280;5778;47.856;12.154;2023-02-11T02:04:38;98176.47;;;-3.62;100.00
11444;BME280;5778;47.856;12.154;2023-02-11T02:07:11;98176.94;;;-3.68;100.00
11444;BME280;5778;47.856;12.154;2023-02-11T02:09:43;98173.50;;;-3.68;100.00
11444;BME280;5778;47.856;12.154;2023-02-11T02:12:14;98175.88;;;-3.76;100.00
11444;BME280;5778;47.856;12.154;2023-02-11T02:14:41;98171.50;;;-3.87;100.00
11444;BME280;5778;47.856;12.154;2023-02-11T02:17:20;98174.56;;;-3.82;100.00
11444;BME280;5778;47.856;12.154;2023-02-11T02:20:12;98176.25;;;-3.81;100.00
11444;BME280;5778;47.856;12.154;2023-02-11T02:23:10;98168.91;;;-3.76;100.00
11444;BME280;5778;47.856;12.154;2023-02-11T02:29:18;98163.47;;;-3.84;100.00
11444;BME280;5778;47.856;12.154;2023-02-11T02:32:10;98154.16;;;-3.75;100.00
11444;BME280;5778;47.856;12.154;2023-02-11T02:34:43;98160.88;;;-4.06;100.00
11444;BME280;5778;47.856;12.154;2023-02-11T02:37:18;98158.06;;;-4.03;100.00
11444;BME280;5778;47.856;12.154;2023-02-11T02:39:49;98157.34;;;-4.05;100.00
11444;BME280;5778;47.856;12.154;2023-02-11T02:42:17;98155.91;;;-4.20;100.00
11444;BME280;5778;47.856;12.154;2023-02-11T02:44:47;98150.84;;;-4.21;100.00
11444;BME280;5778;47.856;12.154;2023-02-11T02:47:16;98154.38;;;-4.00;100.00
11444;BME280;5778;47.856;12.154;2023-02-11T02:49:43;98154.75;;;-3.94;100.00
11444;BME280;5778;47.856;12.154;2023-02-11T02:52:16;98149.81;;;-3.97;100.00
11444;BME280;5778;47.856;12.154;2023-02-11T02:55:22;98146.25;;;-3.96;100.00
11444;BME280;5778;47.856;12.154;2023-02-11T02:58:07;98146.00;;;-4.04;100.00
11444;BME280;5778;47.856;12.154;2023-02-11T03:00:49;98149.88;;;-4.31;100.00
11444;BME280;5778;47.856;12.154;2023-02-11T03:03:28;98144.59;;;-4.30;100.00
11444;BME280;5778;47.856;12.154;2023-02-11T03:06:02;98149.31;;;-4.13;100.00
11444;BME280;5778;47.856;12.154;2023-02-11T03:08:33;98146.34;;;-4.08;100.00
11444;BME280;5778;47.856;12.154;2023-02-11T03:11:04;98152.25;;;-4.06;100.00
11444;BME280;5778;47.856;12.154;2023-02-11T03:13:35;98146.59;;;-3.67;100.00
11444;BME280;5778;47.856;12.154;2023-02-11T03:16:08;98144.53;;;-3.42;100.00
11444;BME280;5778;47.856;12.154;2023-02-11T03:18:41;98139.88;;;-3.27;100.00
11444;BME280;5778;47.856;12.154;2023-02-11T03:21:15;98143.44;;;-2.97;100.00
11444;BME280;5778;47.856;12.154;2023-02-11T03:23:49;98133.00;;;-2.86;100.00
11444;BME280;5778;47.856;12.154;2023-02-11T03:26:24;98135.09;;;-2.80;100.00
11444;BME280;5778;47.856;12.154;2023-02-11T03:29:01;98139.44;;;-2.69;100.00
11444;BME280;5778;47.856;12.154;2023-02-11T03:31:40;98133.13;;;-2.67;100.00
11444;BME280;5778;47.856;12.154;2023-02-11T03:34:15;98125.97;;;-2.74;100.00
11444;BME280;5778;47.856;12.154;2023-02-11T03:36:48;98124.72;;;-2.70;100.00
11444;BME280;5778;47.856;12.154;2023-02-11T03:39:23;98118.78;;;-2.61;100.00
11444;BME280;5778;47.856;12.154;2023-02-11T03:41:51;98116.28;;;-2.63;100.00
11444;BME280;5778;47.856;12.154;2023-02-11T03:44:28;98108.75;;;-2.66;100.00
11444;BME280;5778;47.856;12.154;2023-02-11T03:47:02;98115.97;;;-2.90;100.00
11444;BME280;5778;47.856;12.154;2023-02-11T03:49:34;98108.25;;;-2.80;100.00
11444;BME280;5778;47.856;12.154;2023-02-11T03:52:02;98104.94;;;-2.82;100.00
11444;BME280;5778;47.856;12.154;2023-02-11T03:54:31;98112.41;;;-2.89;100.00
11444;BME280;5778;47.856;12.154;2023-02-11T03:57:00;98102.94;;;-3.10;100.00
11444;BME280;5778;47.856;12.154;2023-02-11T03:59:29;98098.66;;;-3.32;100.00
11444;BME280;5778;47.856;12.154;2023-02-11T04:01:56;98097.28;;;-3.47;100.00
11444;BME280;5778;47.856;12.154;2023-02-11T04:04:24;98106.78;;;-3.90;100.00
11444;BME280;5778;47.856;12.154;2023-02-11T04:06:52;98102.09;;;-4.18;100.00
11444;BME280;5778;47.856;12.154;2023-02-11T04:09:19;98099.22;;;-4.26;100.00
11444;BME280;5778;47.856;12.154;2023-02-11T04:11:47;98110.00;;;-4.30;100.00
11444;BME280;5778;47.856;12.154;2023-02-11T04:14:16;98104.22;;;-4.34;100.00
11444;BME280;5778;47.856;12.154;2023-02-11T04:16:44;98111.88;;;-4.21;100.00
11444;BME280;5778;47.856;12.154;2023-02-11T04:19:11;98110.47;;;-4.14;100.00
11444;BME280;5778;47.856;12.154;2023-02-11T04:21:43;98101.25;;;-4.18;100.00
11444;BME280;5778;47.856;12.154;2023-02-11T04:24:11;98109.03;;;-4.07;100.00
11444;BME280;5778;47.856;12.154;2023-02-11T04:26:38;98096.31;;;-4.32;100.00
11444;BME280;5778;47.856;12.154;2023-02-11T04:29:07;98090.75;;;-4.17;100.00
11444;BME280;5778;47.856;12.154;2023-02-11T04:31:34;98097.38;;;-4.02;100.00
11444;BME280;5778;47.856;12.154;2023-02-11T04:34:06;98089.75;;;-3.72;100.00
11444;BME280;5778;47.856;12.154;2023-02-11T04:36:33;98097.22;;;-3.89;100.00
11444;BME280;5778;47.856;12.154;2023-02-11T04:38:59;98094.88;;;-4.03;100.00
11444;BME280;5778;47.856;12.154;2023-02-11T04:41:28;98099.22;;;-4.15;100.00
11444;BME280;5778;47.856;12.154;2023-02-11T04:43:55;98096.88;;;-4.07;100.00
11444;BME280;5778;47.856;12.154;2023-02-11T04:46:24;98082.72;;;-3.92;100.00
11444;BME280;5778;47.856;12.154;2023-02-11T04:48:52;98097.84;;;-3.97;100.00
11444;BME280;5778;47.856;12.154;2023-02-11T04:51:19;98090.63;;;-4.26;100.00
11444;BME280;5778;47.856;12.154;2023-02-11T04:53:49;98089.22;;;-4.08;100.00
11444;BME280;5778;47.856;12.154;2023-02-11T04:56:17;98086.13;;;-4.02;100.00
11444;BME280;5778;47.856;12.154;2023-02-11T04:58:45;98086.72;;;-3.99;100.00
11444;BME280;5778;47.856;12.154;2023-02-11T05:01:15;98084.84;;;-4.08;100.00
11444;BME280;5778;47.856;12.154;2023-02-11T05:03:43;98092.88;;;-4.22;100.00
11444;BME280;5778;47.856;12.154;2023-02-11T05:06:10;98098.06;;;-4.22;100.00
11444;BME280;5778;47.856;12.154;2023-02-11T05:08:37;98107.03;;;-4.37;100.00
11444;BME280;5778;47.856;12.154;2023-02-11T05:11:05;98106.81;;;-4.23;100.00
11444;BME280;5778;47.856;12.154;2023-02-11T05:13:33;98114.25;;;-4.18;100.00
11444;BME280;5778;47.856;12.154;2023-02-11T05:16:01;98115.53;;;-4.24;100.00
11444;BME280;5778;47.856;12.154;2023-02-11T05:18:28;98110.81;;;-4.41;100.00
11444;BME280;5778;47.856;12.154;2023-02-11T05:20:54;98116.03;;;-4.30;100.00
11444;BME280;5778;47.856;12.154;2023-02-11T05:23:22;98116.47;;;-4.14;100.00
11444;BME280;5778;47.856;12.154;2023-02-11T05:25:51;98113.66;;;-4.00;100.00
11444;BME280;5778;47.856;12.154;2023-02-11T05:28:18;98119.31;;;-4.06;100.00
11444;BME280;5778;47.856;12.154;2023-02-11T05:30:45;98117.88;;;-3.77;100.00
11444;BME280;5778;47.856;12.154;2023-02-11T05:33:13;98123.75;;;-3.53;100.00
11444;BME280;5778;47.856;12.154;2023-02-11T05:35:40;98128.16;;;-3.22;100.00
11444;BME280;5778;47.856;12.154;2023-02-11T05:38:07;98134.06;;;-3.20;100.00
11444;BME280;5778;47.856;12.154;2023-02-11T05:40:33;98125.72;;;-3.03;100.00
11444;BME280;5778;47.856;12.154;2023-02-11T05:43:00;98127.84;;;-2.97;100.00
11444;BME280;5778;47.856;12.154;2023-02-11T05:45:27;98131.78;;;-2.82;100.00
11444;BME280;5778;47.856;12.154;2023-02-11T05:47:54;98129.31;;;-2.83;100.00
11444;BME280;5778;47.856;12.154;2023-02-11T05:50:23;98128.94;;;-2.79;100.00
11444;BME280;5778;47.856;12.154;2023-02-11T05:52:52;98138.31;;;-2.67;100.00
11444;BME280;5778;47.856;12.154;2023-02-11T05:55:19;98128.63;;;-2.65;100.00
11444;BME280;5778;47.856;12.154;2023-02-11T05:57:46;98135.94;;;-2.59;100.00
11444;BME280;5778;47.856;12.154;2023-02-11T06:00:13;98124.72;;;-2.70;100.00
11444;BME280;5778;47.856;12.154;2023-02-11T06:02:40;98120.47;;;-2.92;100.00
11444;BME280;5778;47.856;12.154;2023-02-11T06:05:10;98114.03;;;-3.08;100.00
11444;BME280;5778;47.856;12.154;2023-02-11T06:07:44;98112.03;;;-3.16;100.00
11444;BME280;5778;47.856;12.154;2023-02-11T06:10:11;98104.66;;;-3.31;100.00
11444;BME280;5778;47.856;12.154;2023-02-11T06:12:38;98110.59;;;-3.29;100.00
11444;BME280;5778;47.856;12.154;2023-02-11T06:15:06;98125.47;;;-3.31;100.00
11444;BME280;5778;47.856;12.154;2023-02-11T06:17:33;98129.00;;;-3.21;100.00
11444;BME280;5778;47.856;12.154;2023-02-11T06:20:03;98135.84;;;-3.20;100.00
11444;BME280;5778;47.856;12.154;2023-02-11T06:22:43;98131.13;;;-3.26;100.00
11444;BME280;5778;47.856;12.154;2023-02-11T06:25:11;98123.13;;;-3.34;100.00
11444;BME280;5778;47.856;12.154;2023-02-11T06:27:39;98128.91;;;-3.31;100.00
11444;BME280;5778;47.856;12.154;2023-02-11T06:30:07;98139.50;;;-3.23;100.00
11444;BME280;5778;47.856;12.154;2023-02-11T06:32:37;98128.41;;;-3.25;100.00
11444;BME280;5778;47.856;12.154;2023-02-11T06:35:06;98121.16;;;-3.10;100.00
11444;BME280;5778;47.856;12.154;2023-02-11T06:37:35;98115.56;;;-3.06;100.00
11444;BME280;5778;47.856;12.154;2023-02-11T06:40:05;98110.75;;;-2.90;100.00
11444;BME280;5778;47.856;12.154;2023-02-11T06:42:39;98117.66;;;-2.68;100.00
11444;BME280;5778;47.856;12.154;2023-02-11T06:45:07;98111.75;;;-2.50;100.00
11444;BME280;5778;47.856;12.154;2023-02-11T06:47:35;98109.50;;;-2.34;100.00
11444;BME280;5778;47.856;12.154;2023-02-11T06:50:03;98104.50;;;-2.16;100.00
11444;BME280;5778;47.856;12.154;2023-02-11T06:52:40;98115.25;;;-2.10;100.00
11444;BME280;5778;47.856;12.154;2023-02-11T06:55:10;98104.84;;;-2.00;100.00
11444;BME280;5778;47.856;12.154;2023-02-11T06:57:39;98113.41;;;-1.89;100.00
11444;BME280;5778;47.856;12.154;2023-02-11T07:00:07;98102.84;;;-1.87;100.00
11444;BME280;5778;47.856;12.154;2023-02-11T07:02:36;98115.50;;;-1.83;100.00
11444;BME280;5778;47.856;12.154;2023-02-11T07:05:04;98120.28;;;-1.78;100.00
11444;BME280;5778;47.856;12.154;2023-02-11T07:07:32;98118.16;;;-1.64;100.00
11444;BME280;5778;47.856;12.154;2023-02-11T07:10:00;98119.97;;;-1.55;100.00
11444;BME280;5778;47.856;12.154;2023-02-11T07:12:30;98109.28;;;-1.52;100.00
11444;BME280;5778;47.856;12.154;2023-02-11T07:14:58;98109.13;;;-1.50;100.00
11444;BME280;5778;47.856;12.154;2023-02-11T07:17:25;98122.28;;;-1.61;100.00
11444;BME280;5778;47.856;12.154;2023-02-11T07:19:53;98115.84;;;-1.48;100.00
11444;BME280;5778;47.856;12.154;2023-02-11T07:22:21;98119.31;;;-1.38;100.00
11444;BME280;5778;47.856;12.154;2023-02-11T07:24:49;98119.63;;;-1.22;100.00
11444;BME280;5778;47.856;12.154;2023-02-11T07:27:16;98129.50;;;-1.16;100.00
11444;BME280;5778;47.856;12.154;2023-02-11T07:29:44;98127.31;;;-1.20;100.00
11444;BME280;5778;47.856;12.154;2023-02-11T07:32:49;98135.81;;;-1.18;100.00
11444;BME280;5778;47.856;12.154;2023-02-11T07:35:16;98135.81;;;-1.28;100.00
11444;BME280;5778;47.856;12.154;2023-02-11T07:37:42;98118.66;;;-1.21;100.00
11444;BME280;5778;47.856;12.154;2023-02-11T07:40:10;98119.91;;;-1.06;100.00
11444;BME280;5778;47.856;12.154;2023-02-11T07:42:37;98124.88;;;-1.03;100.00
11444;BME280;5778;47.856;12.154;2023-02-11T07:45:08;98116.06;;;-1.11;100.00
11444;BME280;5778;47.856;12.154;2023-02-11T07:47:35;98118.25;;;-1.07;100.00
11444;BME280;5778;47.856;12.154;2023-02-11T07:50:03;98129.25;;;-1.03;100.00
11444;BME280;5778;47.856;12.154;2023-02-11T07:52:36;98132.97;;;-0.96;100.00
11444;BME280;5778;47.856;12.154;2023-02-11T07:55:04;98135.31;;;-0.84;100.00
11444;BME280;5778;47.856;12.154;2023-02-11T07:57:31;98137.94;;;-0.65;100.00
11444;BME280;5778;47.856;12.154;2023-02-11T07:59:58;98139.97;;;-0.68;100.00
11444;BME280;5778;47.856;12.154;2023-02-11T08:02:28;98133.22;;;-0.52;100.00
11444;BME280;5778;47.856;12.154;2023-02-11T08:04:55;98131.28;;;-0.50;100.00
11444;BME280;5778;47.856;12.154;2023-02-11T08:07:22;98125.13;;;-0.68;100.00
11444;BME280;5778;47.856;12.154;2023-02-11T08:09:50;98123.47;;;-0.59;100.00
11444;BME280;5778;47.856;12.154;2023-02-11T08:12:24;98121.25;;;-0.45;100.00
11444;BME280;5778;47.856;12.154;2023-02-11T08:14:51;98122.91;;;-0.53;100.00
11444;BME280;5778;47.856;12.154;2023-02-11T08:17:18;98118.78;;;-0.56;100.00
11444;BME280;5778;47.856;12.154;2023-02-11T08:19:48;98108.47;;;-0.57;100.00
11444;BME280;5778;47.856;12.154;2023-02-11T08:22:18;98099.00;;;-0.68;100.00
11444;BME280;5778;47.856;12.154;2023-02-11T08:24:45;98081.97;;;-0.72;100.00
11444;BME280;5778;47.856;12.154;2023-02-11T08:27:12;98076.72;;;-0.72;100.00
11444;BME280;5778;47.856;12.154;2023-02-11T08:29:39;98075.91;;;-0.63;100.00
11444;BME280;5778;47.856;12.154;2023-02-11T08:32:07;98092.97;;;-0.59;100.00
11444;BME280;5778;47.856;12.154;2023-02-11T08:34:39;98106.34;;;-0.26;100.00
11444;BME280;5778;47.856;12.154;2023-02-11T08:37:08;98107.19;;;-0.25;100.00
11444;BME280;5778;47.856;12.154;2023-02-11T08:39:35;98101.47;;;-0.11;100.00
11444;BME280;5778;47.856;12.154;2023-02-11T08:42:02;98095.00;;;-0.07;100.00
11444;BME280;5778;47.856;12.154;2023-02-11T08:44:31;98094.97;;;0.02;100.00
11444;BME280;5778;47.856;12.154;2023-02-11T08:46:58;98088.63;;;0.14;100.00
11444;BME280;5778;47.856;12.154;2023-02-11T08:49:25;98079.66;;;0.44;100.00
11444;BME280;5778;47.856;12.154;2023-02-11T08:51:54;98070.28;;;0.68;100.00
11444;BME280;5778;47.856;12.154;2023-02-11T08:54:25;98076.72;;;1.09;100.00
11444;BME280;5778;47.856;12.154;2023-02-11T08:56:52;98091.13;;;1.30;100.00
11444;BME280;5778;47.856;12.154;2023-02-11T08:59:19;98093.88;;;1.46;100.00
11444;BME280;5778;47.856;12.154;2023-02-11T09:01:46;98085.88;;;1.48;100.00
11444;BME280;5778;47.856;12.154;2023-02-11T09:04:13;98089.56;;;1.63;100.00
11444;BME280;5778;47.856;12.154;2023-02-11T09:06:40;98086.75;;;1.82;100.00
11444;BME280;5778;47.856;12.154;2023-02-11T09:09:10;98074.88;;;1.95;100.00
11444;BME280;5778;47.856;12.154;2023-02-11T09:11:40;98076.50;;;1.96;100.00
11444;BME280;5778;47.856;12.154;2023-02-11T09:14:15;98066.25;;;2.11;100.00
11444;BME280;5778;47.856;12.154;2023-02-11T09:16:42;98061.41;;;2.24;98.33
11444;BME280;5778;47.856;12.154;2023-02-11T09:19:09;98074.34;;;2.25;94.17
11444;BME280;5778;47.856;12.154;2023-02-11T09:21:36;98072.78;;;2.40;94.57
11444;BME280;5778;47.856;12.154;2023-02-11T09:24:04;98075.78;;;2.53;90.56
11444;BME280;5778;47.856;12.154;2023-02-11T09:26:33;98074.44;;;2.49;84.13
11444;BME280;5778;47.856;12.154;2023-02-11T09:29:03;98075.59;;;2.47;85.84
11444;BME280;5778;47.856;12.154;2023-02-11T09:31:31;98070.53;;;2.61;84.60
11444;BME280;5778;47.856;12.154;2023-02-11T09:34:00;98062.56;;;2.79;82.46
11444;BME280;5778;47.856;12.154;2023-02-11T09:36:30;98065.53;;;2.84;79.89
11444;BME280;5778;47.856;12.154;2023-02-11T09:38:59;98069.97;;;2.91;76.90
11444;BME280;5778;47.856;12.154;2023-02-11T09:41:38;98057.97;;;2.89;78.15
11444;BME280;5778;47.856;12.154;2023-02-11T09:44:16;98050.41;;;2.94;76.36
11444;BME280;5778;47.856;12.154;2023-02-11T09:46:46;98059.47;;;2.99;70.65
11444;BME280;5778;47.856;12.154;2023-02-11T09:49:21;98061.75;;;2.94;69.81
11444;BME280;5778;47.856;12.154;2023-02-11T09:51:52;98066.72;;;3.13;72.98
11444;BME280;5778;47.856;12.154;2023-02-11T09:54:28;98076.06;;;3.32;69.97
11444;BME280;5778;47.856;12.154;2023-02-11T09:56:57;98066.06;;;3.35;68.21
11444;BME280;5778;47.856;12.154;2023-02-11T09:59:25;98066.88;;;3.44;67.09
11444;BME280;5778;47.856;12.154;2023-02-11T10:01:57;98061.09;;;3.64;67.14
11444;BME280;5778;47.856;12.154;2023-02-11T10:04:43;98061.75;;;3.50;63.17
11444;BME280;5778;47.856;12.154;2023-02-11T10:07:20;98052.41;;;3.56;64.19
11444;BME280;5778;47.856;12.154;2023-02-11T10:10:06;98055.69;;;3.34;59.83
11444;BME280;5778;47.856;12.154;2023-02-11T10:12:46;98046.50;;;3.22;60.83
11444;BME280;5778;47.856;12.154;2023-02-11T10:15:23;98048.81;;;3.33;61.13
11444;BME280;5778;47.856;12.154;2023-02-11T10:18:31;98045.50;;;3.23;60.16
11444;BME280;5778;47.856;12.154;2023-02-11T10:21:08;98036.47;;;3.33;62.21
11444;BME280;5778;47.856;12.154;2023-02-11T10:23:41;98018.22;;;3.24;60.90
11444;BME280;5778;47.856;12.154;2023-02-11T10:26:11;98011.16;;;3.32;60.86
11444;BME280;5778;47.856;12.154;2023-02-11T10:28:41;98015.25;;;3.51;60.96
11444;BME280;5778;47.856;12.154;2023-02-11T10:31:15;98019.19;;;3.55;59.41
11444;BME280;5778;47.856;12.154;2023-02-11T10:33:45;98008.66;;;3.71;59.37
11444;BME280;5778;47.856;12.154;2023-02-11T10:36:15;97994.97;;;3.75;59.92
11444;BME280;5778;47.856;12.154;2023-02-11T10:38:43;98004.06;;;3.65;58.29
11444;BME280;5778;47.856;12.154;2023-02-11T10:41:14;98011.59;;;3.76;57.96
11444;BME280;5778;47.856;12.154;2023-02-11T10:43:44;98003.88;;;4.21;57.93
11444;BME280;5778;47.856;12.154;2023-02-11T10:46:17;97995.97;;;4.13;55.37
11444;BME280;5778;47.856;12.154;2023-02-11T10:48:48;97986.13;;;4.15;56.33
11444;BME280;5778;47.856;12.154;2023-02-11T10:51:19;97992.88;;;4.09;56.04
11444;BME280;5778;47.856;12.154;2023-02-11T10:53:47;97997.41;;;3.93;55.66
11444;BME280;5778;47.856;12.154;2023-02-11T10:56:21;97997.09;;;3.80;54.92
11444;BME280;5778;47.856;12.154;2023-02-11T10:59:00;97990.13;;;3.95;53.13
11444;BME280;5778;47.856;12.154;2023-02-11T11:01:40;97988.84;;;4.29;51.89
11444;BME280;5778;47.856;12.154;2023-02-11T11:04:34;97984.78;;;4.49;50.39
11444;BME280;5778;47.856;12.154;2023-02-11T11:07:12;97977.97;;;4.63;49.55
11444;BME280;5778;47.856;12.154;2023-02-11T11:09:47;97985.47;;;4.74;49.09
11444;BME280;5778;47.856;12.154;2023-02-11T11:12:31;97978.44;;;4.66;47.70
11444;BME280;5778;47.856;12.154;2023-02-11T11:15:02;97966.66;;;4.77;48.19
11444;BME280;5778;47.856;12.154;2023-02-11T11:17:31;97965.69;;;4.92;48.05
11444;BME280;5778;47.856;12.154;2023-02-11T11:20:23;97948.00;;;5.01;47.02
11444;BME280;5778;47.856;12.154;2023-02-11T11:23:08;97943.25;;;5.19;46.65
11444;BME280;5778;47.856;12.154;2023-02-11T11:25:38;97956.66;;;5.61;45.90
11444;BME280;5778;47.856;12.154;2023-02-11T11:28:18;97953.88;;;5.91;44.79
11444;BME280;5778;47.856;12.154;2023-02-11T11:30:46;97961.47;;;6.30;43.98
11444;BME280;5778;47.856;12.154;2023-02-11T11:33:21;97959.22;;;6.27;44.15
11444;BME280;5778;47.856;12.154;2023-02-11T11:35:59;97956.84;;;6.32;43.20
11444;BME280;5778;47.856;12.154;2023-02-11T11:38:28;97962.25;;;6.45;43.49
11444;BME280;5778;47.856;12.154;2023-02-11T11:41:16;97957.53;;;6.61;42.80
11444;BME280;5778;47.856;12.154;2023-02-11T11:43:53;97956.22;;;6.51;43.02
11444;BME280;5778;47.856;12.154;2023-02-11T11:46:27;97958.13;;;6.78;43.38
11444;BME280;5778;47.856;12.154;2023-02-11T11:51:48;97952.09;;;7.05;42.79
11444;BME280;5778;47.856;12.154;2023-02-11T11:54:18;97941.25;;;6.58;43.02
11444;BME280;5778;47.856;12.154;2023-02-11T11:56:52;97936.38;;;6.76;42.94
11444;BME280;5778;47.856;12.154;2023-02-11T11:59:32;97931.97;;;6.83;42.72
11444;BME280;5778;47.856;12.154;2023-02-11T12:02:24;97940.06;;;6.60;42.25
11444;BME280;5778;47.856;12.154;2023-02-11T12:05:08;97929.72;;;6.44;42.53
11444;BME280;5778;47.856;12.154;2023-02-11T12:07:49;97932.78;;;6.48;42.47
11444;BME280;5778;47.856;12.154;2023-02-11T12:10:33;97921.50;;;6.54;43.17
11444;BME280;5778;47.856;12.154;2023-02-11T12:13:14;97927.03;;;6.80;42.71
11444;BME280;5778;47.856;12.154;2023-02-11T12:15:52;97927.69;;;6.82;42.86
11444;BME280;5778;47.856;12.154;2023-02-11T12:18:36;97927.94;;;6.66;42.86
11444;BME280;5778;47.856;12.154;2023-02-11T12:21:17;97923.41;;;6.81;42.22
11444;BME280;5778;47.856;12.154;2023-02-11T12:23:57;97926.28;;;6.86;42.15
11444;BME280;5778;47.856;12.154;2023-02-11T12:26:30;97931.00;;;6.90;41.96
11444;BME280;5778;47.856;12.154;2023-02-11T12:29:07;97929.75;;;6.86;42.73
11444;BME280;5778;47.856;12.154;2023-02-11T12:31:53;97930.06;;;6.77;42.76
11444;BME280;5778;47.856;12.154;2023-02-11T12:34:54;97938.94;;;6.69;42.66
11444;BME280;5778;47.856;12.154;2023-02-11T12:37:45;97928.81;;;6.73;42.26
11444;BME280;5778;47.856;12.154;2023-02-11T12:40:21;97925.53;;;6.71;42.40
11444;BME280;5778;47.856;12.154;2023-02-11T12:43:04;97919.81;;;6.67;42.58
11444;BME280;5778;47.856;12.154;2023-02-11T12:45:48;97910.53;;;6.78;42.33
11444;BME280;5778;47.856;12.154;2023-02-11T12:48:33;97901.59;;;6.79;43.06
11444;BME280;5778;47.856;12.154;2023-02-11T12:51:09;97900.47;;;6.88;42.01
11444;BME280;5778;47.856;12.154;2023-02-11T12:54:04;97907.91;;;6.78;42.02
11444;BME280;5778;47.856;12.154;2023-02-11T12:56:36;97901.28;;;6.88;42.17
11444;BME280;5778;47.856;12.154;2023-02-11T12:59:12;97900.28;;;6.89;41.93
11444;BME280;5778;47.856;12.154;2023-02-11T13:01:43;97897.41;;;7.12;42.24
11444;BME280;5778;47.856;12.154;2023-02-11T13:04:14;97894.41;;;6.94;42.05
11444;BME280;5778;47.856;12.154;2023-02-11T13:06:45;97891.25;;;7.05;41.68
11444;BME280;5778;47.856;12.154;2023-02-11T13:09:19;97897.16;;;7.07;41.98
11444;BME280;5778;47.856;12.154;2023-02-11T13:11:52;97891.28;;;6.84;41.20
11444;BME280;5778;47.856;12.154;2023-02-11T13:14:24;97892.28;;;6.62;42.22
11444;BME280;5778;47.856;12.154;2023-02-11T13:16:55;97887.25;;;6.67;42.37
11444;BME280;5778;47.856;12.154;2023-02-11T13:19:26;97887.09;;;6.68;42.66
11444;BME280;5778;47.856;12.154;2023-02-11T13:22:06;97885.75;;;6.79;43.39
11444;BME280;5778;47.856;12.154;2023-02-11T13:24:42;97891.72;;;6.66;43.29
11444;BME280;5778;47.856;12.154;2023-02-11T13:27:21;97896.97;;;6.81;43.20
11444;BME280;5778;47.856;12.154;2023-02-11T13:30:21;97884.19;;;6.84;43.38